createdAt,value
2018-07-07T00:00:44.374Z,0.90
2018-07-07T00:03:12.440Z,0.80
2018-07-07T00:05:40.556Z,0.83
2018-07-07T00:08:08.638Z,1.10
2018-07-07T00:10:36.756Z,0.87
2018-07-07T00:13:04.895Z,0.60
2018-07-07T00:15:33.022Z,1.00
2018-07-07T00:18:01.111Z,1.00
2018-07-07T00:20:29.195Z,0.77
2018-07-07T00:22:57.302Z,0.70
2018-07-07T00:25:25.394Z,0.70
2018-07-07T00:27:53.482Z,0.87
2018-07-07T00:30:21.571Z,0.70
2018-07-07T00:32:49.662Z,0.83
2018-07-07T00:35:17.738Z,0.60
2018-07-07T00:37:45.847Z,0.80
2018-07-07T00:40:13.930Z,1.03
2018-07-07T00:42:42.011Z,0.80
2018-07-07T00:45:10.107Z,0.90
2018-07-07T00:47:38.194Z,0.80
2018-07-07T00:50:06.291Z,0.80
2018-07-07T00:52:34.392Z,0.70
2018-07-07T00:55:02.478Z,0.70
2018-07-07T00:57:30.569Z,1.47
2018-07-07T00:59:58.691Z,0.80
2018-07-07T01:02:26.638Z,0.80
2018-07-07T01:04:54.601Z,0.80
2018-07-07T01:07:22.683Z,0.63
2018-07-07T01:09:50.771Z,0.80
2018-07-07T01:12:18.865Z,0.70
2018-07-07T01:14:46.984Z,1.00
2018-07-07T01:17:15.071Z,0.90
2018-07-07T01:19:43.163Z,0.70
2018-07-07T01:22:11.276Z,0.80
2018-07-07T01:24:39.682Z,0.97
2018-07-07T01:27:07.778Z,0.90
2018-07-07T01:29:35.912Z,0.97
2018-07-07T01:32:04.041Z,0.60
2018-07-07T01:34:32.126Z,0.70
2018-07-07T01:37:00.231Z,0.70
2018-07-07T01:39:28.321Z,0.77
2018-07-07T01:41:56.775Z,0.70
2018-07-07T01:44:24.870Z,0.77
2018-07-07T01:46:52.967Z,0.70
2018-07-07T01:49:21.083Z,0.80
2018-07-07T01:51:49.192Z,0.90
2018-07-07T01:54:17.273Z,0.60
2018-07-07T01:56:45.374Z,0.60
2018-07-07T01:59:13.464Z,0.67
2018-07-07T02:01:41.535Z,0.77
2018-07-07T02:04:09.631Z,0.87
2018-07-07T02:06:37.718Z,0.50
2018-07-07T02:09:05.858Z,0.60
2018-07-07T02:11:33.943Z,0.80
2018-07-07T02:14:02.039Z,0.60
2018-07-07T02:16:30.127Z,0.57
2018-07-07T02:18:58.212Z,0.50
2018-07-07T02:21:26.303Z,0.80
2018-07-07T02:23:54.386Z,0.77
2018-07-07T02:26:22.483Z,0.50
2018-07-07T02:28:50.438Z,0.73
2018-07-07T02:31:18.426Z,1.17
2018-07-07T02:33:46.657Z,0.90
2018-07-07T02:36:14.740Z,0.60
2018-07-07T02:38:42.836Z,0.50
2018-07-07T02:41:10.959Z,0.73
2018-07-07T02:43:39.047Z,0.83
2018-07-07T02:46:07.163Z,0.80
2018-07-07T02:48:35.218Z,0.70
2018-07-07T02:51:03.307Z,0.60
2018-07-07T02:53:31.251Z,0.60
2018-07-07T02:55:59.233Z,0.60
2018-07-07T02:58:27.337Z,0.60
2018-07-07T03:00:55.463Z,0.67
2018-07-07T03:03:23.644Z,0.50
2018-07-07T03:05:51.650Z,0.60
2018-07-07T03:08:19.737Z,0.87
2018-07-07T03:10:47.838Z,0.77
2018-07-07T03:13:15.991Z,0.50
2018-07-07T03:15:44.062Z,0.60
2018-07-07T03:18:12.160Z,0.90
2018-07-07T03:20:40.271Z,0.70
2018-07-07T03:23:08.351Z,0.60
2018-07-07T03:25:36.479Z,0.60
2018-07-07T03:28:04.852Z,0.67
2018-07-07T03:30:32.929Z,0.60
2018-07-07T03:33:01.044Z,0.70
2018-07-07T03:35:29.163Z,0.47
2018-07-07T03:37:57.306Z,0.67
2018-07-07T03:40:25.427Z,0.50
2018-07-07T03:42:53.554Z,0.60
2018-07-07T03:45:21.666Z,0.60
2018-07-07T03:47:49.779Z,0.50
2018-07-07T03:50:17.725Z,0.60
2018-07-07T03:52:45.715Z,0.63
2018-07-07T03:55:13.839Z,0.43
2018-07-07T03:57:41.965Z,0.70
2018-07-07T04:00:10.098Z,0.60
2018-07-07T04:02:38.215Z,0.60
2018-07-07T04:05:06.331Z,0.50
2018-07-07T04:07:34.439Z,0.70
2018-07-07T04:10:02.559Z,0.60
2018-07-07T04:12:30.675Z,0.70
2018-07-07T04:14:58.788Z,0.70
2018-07-07T04:17:26.908Z,0.70
2018-07-07T04:19:55.019Z,0.70
2018-07-07T04:22:23.129Z,0.70
2018-07-07T04:24:51.239Z,0.87
2018-07-07T04:27:19.383Z,0.93
2018-07-07T04:29:47.495Z,0.80
2018-07-07T04:32:15.611Z,0.73
2018-07-07T04:34:43.731Z,0.60
2018-07-07T04:37:11.848Z,0.60
2018-07-07T04:39:39.947Z,0.87
2018-07-07T04:42:08.063Z,0.70
2018-07-07T04:44:36.207Z,0.93
2018-07-07T04:47:04.323Z,0.40
2018-07-07T04:49:32.455Z,0.60
2018-07-07T04:52:00.571Z,0.60
2018-07-07T04:54:28.684Z,0.40
2018-07-07T04:56:57.403Z,0.60
2018-07-07T04:59:25.522Z,0.70
2018-07-07T05:01:53.634Z,0.70
2018-07-07T05:04:21.763Z,0.67
2018-07-07T05:06:49.866Z,0.67
2018-07-07T05:09:17.834Z,0.70
2018-07-07T05:11:45.864Z,0.63
2018-07-07T05:14:13.980Z,0.90
2018-07-07T05:16:42.091Z,0.83
2018-07-07T05:19:10.251Z,0.50
2018-07-07T05:21:38.368Z,1.00
2018-07-07T05:24:06.510Z,0.77
2018-07-07T05:26:34.631Z,0.60
2018-07-07T05:29:02.729Z,0.80
2018-07-07T05:31:30.826Z,0.70
2018-07-07T05:33:58.920Z,0.60
2018-07-07T05:36:27.039Z,0.50
2018-07-07T05:38:55.151Z,0.63
2018-07-07T05:41:23.255Z,0.50
2018-07-07T05:43:51.383Z,0.47
2018-07-07T05:46:19.482Z,0.60
2018-07-07T05:48:47.590Z,0.70
2018-07-07T05:51:15.534Z,0.70
2018-07-07T05:53:43.515Z,0.63
2018-07-07T05:56:11.630Z,0.70
2018-07-07T05:58:39.739Z,0.77
2018-07-07T06:01:07.838Z,0.60
2018-07-07T06:03:35.946Z,0.70
2018-07-07T06:06:04.323Z,0.90
2018-07-07T06:08:32.455Z,1.00
2018-07-07T06:11:00.575Z,0.90
2018-07-07T06:13:28.679Z,0.80
2018-07-07T06:15:56.812Z,0.90
2018-07-07T06:18:25.073Z,0.70
2018-07-07T06:20:53.059Z,1.00
2018-07-07T06:23:21.169Z,0.77
2018-07-07T06:25:49.274Z,0.97
2018-07-07T06:28:17.379Z,0.93
2018-07-07T06:30:45.502Z,0.80
2018-07-07T06:33:13.607Z,0.80
2018-07-07T06:35:41.720Z,0.97
2018-07-07T06:38:09.873Z,0.80
2018-07-07T06:40:38.007Z,0.90
2018-07-07T06:43:16.295Z,0.60
2018-07-07T06:45:44.382Z,0.87
2018-07-07T06:48:12.487Z,0.97
2018-07-07T06:50:40.628Z,0.70
2018-07-07T06:53:08.750Z,0.63
2018-07-07T06:55:36.859Z,0.73
2018-07-07T06:58:05.048Z,0.80
2018-07-07T07:00:33.144Z,0.80
2018-07-07T07:03:01.263Z,0.60
2018-07-07T07:05:29.359Z,0.67
2018-07-07T07:07:57.314Z,0.83
2018-07-07T07:10:25.390Z,0.60
2018-07-07T07:12:53.585Z,0.80
2018-07-07T07:15:21.711Z,0.90
2018-07-07T07:17:49.835Z,0.70
2018-07-07T07:20:17.944Z,0.60
2018-07-07T07:22:46.055Z,0.50
2018-07-07T07:25:14.194Z,0.50
2018-07-07T07:27:42.303Z,0.70
2018-07-07T07:30:10.460Z,0.40
2018-07-07T07:32:38.574Z,0.70
2018-07-07T07:35:06.690Z,0.70
2018-07-07T07:37:34.831Z,0.67
2018-07-07T07:40:02.933Z,0.83
2018-07-07T07:42:31.126Z,0.80
2018-07-07T07:44:59.240Z,0.63
2018-07-07T07:47:27.356Z,0.50
2018-07-07T07:49:55.447Z,0.70
2018-07-07T07:52:23.572Z,0.60
2018-07-07T07:54:51.679Z,0.50
2018-07-07T07:57:19.794Z,0.63
2018-07-07T07:59:47.927Z,0.70
2018-07-07T08:02:16.040Z,0.70
2018-07-07T08:04:44.159Z,0.93
2018-07-07T08:07:12.251Z,0.87
2018-07-07T08:09:40.335Z,0.80
2018-07-07T08:12:08.435Z,0.70
2018-07-07T08:14:36.589Z,0.80
2018-07-07T08:17:04.731Z,0.90
2018-07-07T08:19:32.842Z,0.50
2018-07-07T08:22:00.966Z,0.67
2018-07-07T08:24:29.079Z,0.50
2018-07-07T08:26:57.184Z,0.80
2018-07-07T08:29:25.340Z,1.03
2018-07-07T08:31:53.419Z,0.60
2018-07-07T08:34:21.597Z,0.67
2018-07-07T08:36:49.675Z,0.77
2018-07-07T08:39:17.782Z,0.80
2018-07-07T08:41:45.953Z,1.03
2018-07-07T08:44:13.999Z,0.90
2018-07-07T08:46:42.091Z,0.93
2018-07-07T08:49:10.195Z,0.90
2018-07-07T08:51:38.314Z,1.20
2018-07-07T08:54:06.419Z,1.20
2018-07-07T08:56:34.535Z,1.40
2018-07-07T08:59:02.620Z,1.37
2018-07-07T09:01:30.796Z,1.20
2018-07-07T09:03:58.901Z,1.10
2018-07-07T09:06:32.742Z,1.17
2018-07-07T09:09:00.852Z,1.23
2018-07-07T09:11:28.956Z,1.00
2018-07-07T09:13:57.055Z,1.00
2018-07-07T09:16:25.147Z,0.93
2018-07-07T09:18:53.280Z,1.43
2018-07-07T09:21:21.372Z,1.40
2018-07-07T09:23:49.459Z,1.50
2018-07-07T09:26:17.558Z,1.20
2018-07-07T09:28:45.660Z,1.30
2018-07-07T09:31:13.764Z,1.30
2018-07-07T09:33:41.870Z,1.50
2018-07-07T09:36:10.005Z,1.20
2018-07-07T09:38:38.106Z,1.23
2018-07-07T09:41:06.224Z,1.60
2018-07-07T09:43:34.327Z,1.50
2018-07-07T09:46:04.519Z,1.50
2018-07-07T09:48:32.619Z,1.53
2018-07-07T09:51:00.718Z,2.03
2018-07-07T09:53:28.815Z,1.70
2018-07-07T09:55:56.943Z,1.77
2018-07-07T09:58:25.039Z,1.57
2018-07-07T10:00:53.127Z,1.90
2018-07-07T10:03:21.246Z,1.50
2018-07-07T10:05:49.342Z,1.90
2018-07-07T10:08:17.443Z,1.80
2018-07-07T10:10:45.544Z,1.50
2018-07-07T10:13:13.651Z,1.70
2018-07-07T10:15:41.742Z,1.83
2018-07-07T10:18:09.831Z,1.70
2018-07-07T10:20:37.972Z,1.77
2018-07-07T10:23:06.042Z,1.70
2018-07-07T10:25:34.138Z,1.57
2018-07-07T10:28:02.239Z,2.43
2018-07-07T10:30:30.334Z,2.30
2018-07-07T10:32:58.439Z,1.97
2018-07-07T10:35:26.571Z,2.00
2018-07-07T10:37:54.726Z,1.93
2018-07-07T10:40:22.831Z,2.17
2018-07-07T10:42:50.927Z,2.23
2018-07-07T10:45:19.019Z,2.03
2018-07-07T10:47:47.107Z,2.20
2018-07-07T10:50:15.207Z,1.70
2018-07-07T10:52:43.318Z,2.20
2018-07-07T10:55:11.419Z,1.90
2018-07-07T10:57:39.546Z,1.67
2018-07-07T11:00:08.212Z,1.80
2018-07-07T11:02:36.370Z,1.87
2018-07-07T11:05:04.559Z,1.70
2018-07-07T11:07:32.660Z,1.80
2018-07-07T11:10:00.771Z,1.60
2018-07-07T11:12:28.859Z,1.80
2018-07-07T11:14:56.963Z,2.10
2018-07-07T11:17:25.059Z,1.82
2018-07-07T11:19:53.179Z,2.17
2018-07-07T11:22:21.267Z,2.00
2018-07-07T11:24:49.359Z,2.27
2018-07-07T11:27:17.309Z,2.22
2018-07-07T11:29:45.137Z,1.98
2018-07-07T11:32:13.103Z,2.12
2018-07-07T11:34:41.198Z,2.17
2018-07-07T11:39:55.684Z,1.87
2018-07-07T11:42:23.867Z,1.80
2018-07-07T11:44:51.890Z,1.80
2018-07-07T11:47:20.015Z,1.57
2018-07-07T11:49:47.958Z,1.80
2018-07-07T11:52:15.947Z,2.00
2018-07-07T11:54:44.050Z,2.12
2018-07-07T11:57:12.172Z,1.70
2018-07-07T11:59:40.276Z,1.60
2018-07-07T12:02:08.390Z,1.50
2018-07-07T12:04:36.669Z,2.00
2018-07-07T12:07:04.623Z,1.77
2018-07-07T12:09:32.727Z,1.98
2018-07-07T12:12:00.826Z,1.77
2018-07-07T12:14:28.927Z,1.70
2018-07-07T12:16:57.035Z,1.90
2018-07-07T12:19:25.166Z,1.50
2018-07-07T12:21:53.291Z,1.75
2018-07-07T12:24:21.380Z,1.55
2018-07-07T12:26:49.473Z,1.67
2018-07-07T12:29:17.571Z,1.82
2018-07-07T12:31:45.709Z,1.45
2018-07-07T12:34:13.812Z,1.90
2018-07-07T12:36:41.816Z,1.77
2018-07-07T12:39:09.743Z,1.85
2018-07-07T12:44:13.671Z,1.67
2018-07-07T12:46:41.807Z,1.65
2018-07-07T12:49:09.971Z,1.70
2018-07-07T12:51:38.114Z,1.90
2018-07-07T12:54:06.252Z,1.77
2018-07-07T12:56:34.378Z,1.70
2018-07-07T12:59:02.526Z,1.75
2018-07-07T13:01:30.715Z,1.67
2018-07-07T13:03:58.840Z,1.80
2018-07-07T13:06:26.975Z,1.90
2018-07-07T13:08:55.106Z,1.45
2018-07-07T13:11:23.253Z,1.80
2018-07-07T13:13:51.400Z,1.85
2018-07-07T13:16:19.547Z,1.50
2018-07-07T13:18:47.690Z,1.70
2018-07-07T13:21:15.835Z,2.05
2018-07-07T13:23:43.990Z,1.70
2018-07-07T13:26:12.126Z,1.40
2018-07-07T13:28:40.274Z,1.80
2018-07-07T13:31:08.442Z,1.70
2018-07-07T13:33:36.603Z,1.90
2018-07-07T13:36:04.749Z,1.47
2018-07-07T13:38:32.875Z,1.80
2018-07-07T13:41:01.026Z,1.57
2018-07-07T13:43:29.134Z,1.50
2018-07-07T13:45:57.230Z,1.27
2018-07-07T13:48:25.374Z,1.55
2018-07-07T13:50:53.482Z,1.55
2018-07-07T13:53:21.622Z,1.70
2018-07-07T13:55:49.750Z,1.40
2018-07-07T13:58:17.871Z,1.40
2018-07-07T14:00:46.324Z,1.50
2018-07-07T14:03:14.426Z,1.53
2018-07-07T14:05:42.526Z,1.10
2018-07-07T14:08:10.618Z,1.40
2018-07-07T14:10:38.720Z,1.40
2018-07-07T14:13:06.860Z,1.30
2018-07-07T14:15:34.966Z,1.40
2018-07-07T14:18:03.080Z,1.30
2018-07-07T14:20:31.187Z,1.40
2018-07-07T14:22:59.288Z,1.27
2018-07-07T14:25:27.403Z,1.20
2018-07-07T14:27:55.502Z,1.73
2018-07-07T14:30:23.611Z,1.40
2018-07-07T14:32:51.723Z,1.20
2018-07-07T14:35:19.873Z,1.20
2018-07-07T14:37:47.978Z,1.40
2018-07-07T14:40:16.076Z,1.13
2018-07-07T14:42:44.176Z,1.37
2018-07-07T14:45:22.261Z,1.17
2018-07-07T14:47:50.385Z,1.30
2018-07-07T14:50:18.527Z,1.40
2018-07-07T14:52:46.694Z,1.10
2018-07-07T14:55:16.149Z,1.20
2018-07-07T14:57:44.283Z,1.20
2018-07-07T15:00:12.427Z,1.33
2018-07-07T15:02:40.578Z,1.30
2018-07-07T15:05:08.731Z,1.60
2018-07-07T15:07:36.867Z,1.40
2018-07-07T15:10:05.114Z,1.40
2018-07-07T15:12:33.158Z,1.23
2018-07-07T15:15:01.295Z,1.23
2018-07-07T15:17:29.456Z,1.33
2018-07-07T15:19:57.598Z,1.47
2018-07-07T15:22:25.767Z,1.30
2018-07-07T15:24:53.958Z,1.80
2018-07-07T15:27:22.110Z,2.73
2018-07-07T15:29:50.246Z,2.00
2018-07-07T15:32:18.381Z,1.37
2018-07-07T15:34:46.527Z,1.40
2018-07-07T15:37:14.671Z,1.37
2018-07-07T15:39:42.847Z,1.40
2018-07-07T15:42:11.021Z,1.23
2018-07-07T15:44:39.131Z,1.50
2018-07-07T15:47:07.302Z,2.00
2018-07-07T15:49:35.439Z,1.63
2018-07-07T15:52:03.603Z,1.40
2018-07-07T15:54:31.768Z,1.47
2018-07-07T15:56:59.911Z,1.47
2018-07-07T15:59:28.047Z,1.83
2018-07-07T16:01:56.187Z,1.40
2018-07-07T16:04:24.979Z,1.83
2018-07-07T16:06:53.120Z,1.47
2018-07-07T16:09:21.275Z,1.30
2018-07-07T16:11:49.428Z,1.40
2018-07-07T16:14:17.566Z,1.00
2018-07-07T16:16:45.987Z,1.50
2018-07-07T16:19:14.138Z,2.07
2018-07-07T16:21:42.548Z,1.47
2018-07-07T16:24:10.639Z,1.40
2018-07-07T16:26:38.774Z,1.67
2018-07-07T16:29:06.957Z,1.40
2018-07-07T16:31:38.242Z,1.20
2018-07-07T16:34:06.419Z,1.60
2018-07-07T16:36:34.558Z,1.30
2018-07-07T16:39:02.915Z,1.30
2018-07-07T16:41:31.070Z,1.50
2018-07-07T16:43:59.223Z,1.20
2018-07-07T16:46:27.419Z,1.70
2018-07-07T16:48:55.538Z,1.40
2018-07-07T16:51:23.975Z,1.17
2018-07-07T16:53:52.154Z,1.40
2018-07-07T16:56:20.263Z,1.23
2018-07-07T16:58:48.374Z,1.20
2018-07-07T17:01:16.488Z,1.03
2018-07-07T17:03:44.615Z,1.17
2018-07-07T17:06:12.760Z,1.37
2018-07-07T17:08:40.883Z,1.30
2018-07-07T17:11:08.986Z,1.03
2018-07-07T17:13:37.920Z,1.23
2018-07-07T17:16:06.569Z,1.50
2018-07-07T17:18:34.686Z,1.17
2018-07-07T17:21:02.831Z,1.23
2018-07-07T17:23:30.936Z,1.30
2018-07-07T17:25:59.070Z,1.30
2018-07-07T17:28:27.197Z,1.13
2018-07-07T17:30:57.506Z,1.40
2018-07-07T17:33:25.631Z,1.00
2018-07-07T17:35:53.730Z,1.67
2018-07-07T17:38:21.843Z,1.53
2018-07-07T17:40:50.974Z,1.20
2018-07-07T17:43:19.294Z,1.83
2018-07-07T17:45:48.627Z,1.27
2018-07-07T17:48:17.664Z,1.30
2018-07-07T17:50:48.252Z,1.33
2018-07-07T17:53:19.232Z,1.30
2018-07-07T17:55:51.608Z,0.90
2018-07-07T17:58:21.776Z,1.03
2018-07-07T18:00:53.155Z,1.30
2018-07-07T18:03:22.177Z,1.40
2018-07-07T18:05:50.331Z,1.17
2018-07-07T18:08:18.320Z,1.13
2018-07-07T18:10:46.325Z,1.20
2018-07-07T18:13:17.030Z,1.10
2018-07-07T18:15:46.361Z,1.13
2018-07-07T18:18:18.255Z,1.07
2018-07-07T18:20:49.178Z,1.07
2018-07-07T18:23:20.143Z,1.07
2018-07-07T18:25:50.230Z,1.17
2018-07-07T18:28:20.258Z,1.10
2018-07-07T18:30:51.287Z,1.00
2018-07-07T18:33:24.784Z,1.10
2018-07-07T18:35:53.684Z,0.93
2018-07-07T18:38:25.500Z,1.17
2018-07-07T18:40:55.490Z,1.47
2018-07-07T18:43:25.884Z,1.17
2018-07-07T18:45:54.819Z,1.07
2018-07-07T18:48:28.007Z,1.00
2018-07-07T18:51:00.090Z,1.20
2018-07-07T18:53:30.323Z,1.10
2018-07-07T18:56:01.415Z,1.20
2018-07-07T18:58:33.005Z,1.20
2018-07-07T19:01:03.485Z,1.17
2018-07-07T19:03:34.371Z,1.00
2018-07-07T19:06:06.220Z,1.03
2018-07-07T19:08:38.926Z,1.00
2018-07-07T19:11:09.012Z,1.10
2018-07-07T19:13:39.339Z,0.90
2018-07-07T19:16:10.762Z,1.17
2018-07-07T19:18:43.317Z,1.30
2018-07-07T19:21:17.412Z,1.10
2018-07-07T19:23:48.197Z,1.00
2018-07-07T19:26:17.987Z,1.10
2018-07-07T19:28:47.969Z,1.27
2018-07-07T19:31:19.356Z,1.10
2018-07-07T19:33:49.039Z,1.30
2018-07-07T19:36:18.989Z,1.07
2018-07-07T19:38:49.814Z,1.07
2018-07-07T19:41:19.874Z,1.10
2018-07-07T19:43:48.945Z,1.20
2018-07-07T19:46:19.122Z,1.00
2018-07-07T19:48:52.227Z,1.23
2018-07-07T19:51:20.366Z,0.80
2018-07-07T19:53:48.515Z,0.93
2018-07-07T19:56:16.635Z,0.87
2018-07-07T19:58:44.771Z,1.00
2018-07-07T20:01:12.904Z,1.03
2018-07-07T20:03:41.030Z,1.10
2018-07-07T20:06:09.191Z,1.10
2018-07-07T20:08:37.331Z,1.10
2018-07-07T20:11:05.478Z,0.90
2018-07-07T20:13:33.642Z,1.00
2018-07-07T20:16:09.190Z,0.83
2018-07-07T20:19:18.685Z,0.90
2018-07-07T20:21:48.627Z,0.73
2018-07-07T20:24:17.764Z,1.13
2018-07-07T20:26:46.262Z,0.80
2018-07-07T20:29:14.358Z,0.90
2018-07-07T20:31:42.479Z,1.03
2018-07-07T20:34:10.591Z,1.00
2018-07-07T20:36:38.687Z,0.90
2018-07-07T20:39:06.795Z,0.60
2018-07-07T20:41:34.918Z,1.00
